sensor_id;sensor_type;location;lat;lon;timestamp;P1;durP1;ratioP1;P2;durP2;ratioP2
67749;SDS011;54550;48.838;8.828;2022-12-07T00:01:23;21.77;;;12.43;;
67749;SDS011;54550;48.838;8.828;2022-12-07T00:04:01;27.63;;;13.70;;
67749;SDS011;54550;48.838;8.828;2022-12-07T00:06:31;23.63;;;14.05;;
67749;SDS011;54550;48.838;8.828;2022-12-07T00:08:58;25.98;;;16.23;;
67749;SDS011;54550;48.838;8.828;2022-12-07T00:11:24;26.67;;;15.93;;
67749;SDS011;54550;48.838;8.828;2022-12-07T00:13:51;34.33;;;15.55;;
67749;SDS011;54550;48.838;8.828;2022-12-07T00:16:19;28.10;;;16.23;;
67749;SDS011;54550;48.838;8.828;2022-12-07T00:18:46;23.70;;;15.35;;
67749;SDS011;54550;48.838;8.828;2022-12-07T00:21:13;20.90;;;13.47;;
67749;SDS011;54550;48.838;8.828;2022-12-07T00:23:40;24.20;;;14.70;;
67749;SDS011;54550;48.838;8.828;2022-12-07T00:26:10;22.55;;;13.95;;
67749;SDS011;54550;48.838;8.828;2022-12-07T00:28:44;22.25;;;13.48;;
67749;SDS011;54550;48.838;8.828;2022-12-07T00:31:14;22.50;;;13.55;;
67749;SDS011;54550;48.838;8.828;2022-12-07T00:33:42;20.55;;;12.80;;
67749;SDS011;54550;48.838;8.828;2022-12-07T00:36:08;17.93;;;11.87;;
67749;SDS011;54550;48.838;8.828;2022-12-07T00:38:36;21.35;;;12.40;;
67749;SDS011;54550;48.838;8.828;2022-12-07T00:41:07;25.75;;;13.48;;
67749;SDS011;54550;48.838;8.828;2022-12-07T00:43:36;22.85;;;13.07;;
67749;SDS011;54550;48.838;8.828;2022-12-07T00:46:02;21.17;;;13.37;;
67749;SDS011;54550;48.838;8.828;2022-12-07T00:48:28;16.70;;;12.10;;
67749;SDS011;54550;48.838;8.828;2022-12-07T00:50:54;25.05;;;12.57;;
67749;SDS011;54550;48.838;8.828;2022-12-07T00:53:20;18.35;;;12.25;;
67749;SDS011;54550;48.838;8.828;2022-12-07T00:55:46;20.50;;;11.93;;
67749;SDS011;54550;48.838;8.828;2022-12-07T00:58:11;17.87;;;11.97;;
67749;SDS011;54550;48.838;8.828;2022-12-07T01:00:38;21.90;;;13.00;;
67749;SDS011;54550;48.838;8.828;2022-12-07T01:03:05;20.30;;;12.38;;
67749;SDS011;54550;48.838;8.828;2022-12-07T01:05:32;23.77;;;13.15;;
67749;SDS011;54550;48.838;8.828;2022-12-07T01:07:57;29.27;;;13.47;;
67749;SDS011;54550;48.838;8.828;2022-12-07T01:10:23;25.93;;;13.67;;
67749;SDS011;54550;48.838;8.828;2022-12-07T01:12:49;31.40;;;14.93;;
67749;SDS011;54550;48.838;8.828;2022-12-07T01:15:15;27.87;;;13.03;;
67749;SDS011;54550;48.838;8.828;2022-12-07T01:17:40;25.20;;;14.55;;
67749;SDS011;54550;48.838;8.828;2022-12-07T01:20:06;25.93;;;15.40;;
67749;SDS011;54550;48.838;8.828;2022-12-07T01:22:36;34.40;;;18.30;;
67749;SDS011;54550;48.838;8.828;2022-12-07T01:25:08;41.05;;;18.45;;
67749;SDS011;54550;48.838;8.828;2022-12-07T01:27:37;39.28;;;18.85;;
67749;SDS011;54550;48.838;8.828;2022-12-07T01:30:03;28.95;;;16.10;;
67749;SDS011;54550;48.838;8.828;2022-12-07T01:32:30;26.52;;;15.60;;
67749;SDS011;54550;48.838;8.828;2022-12-07T01:34:56;29.67;;;16.20;;
67749;SDS011;54550;48.838;8.828;2022-12-07T01:37:22;27.17;;;15.10;;
67749;SDS011;54550;48.838;8.828;2022-12-07T01:39:48;25.57;;;15.63;;
67749;SDS011;54550;48.838;8.828;2022-12-07T01:42:14;29.55;;;16.95;;
67749;SDS011;54550;48.838;8.828;2022-12-07T01:47:46;33.28;;;16.90;;
67749;SDS011;54550;48.838;8.828;2022-12-07T01:50:17;28.05;;;14.52;;
67749;SDS011;54550;48.838;8.828;2022-12-07T01:52:43;28.60;;;15.13;;
67749;SDS011;54550;48.838;8.828;2022-12-07T01:55:13;30.40;;;16.10;;
67749;SDS011;54550;48.838;8.828;2022-12-07T01:57:42;29.77;;;16.95;;
67749;SDS011;54550;48.838;8.828;2022-12-07T02:00:12;37.75;;;18.73;;
67749;SDS011;54550;48.838;8.828;2022-12-07T02:02:48;29.65;;;16.88;;
67749;SDS011;54550;48.838;8.828;2022-12-07T02:05:18;32.50;;;16.15;;
67749;SDS011;54550;48.838;8.828;2022-12-07T02:07:44;35.33;;;18.38;;
67749;SDS011;54550;48.838;8.828;2022-12-07T02:10:16;27.27;;;17.05;;
67749;SDS011;54550;48.838;8.828;2022-12-07T02:12:47;32.03;;;16.35;;
67749;SDS011;54550;48.838;8.828;2022-12-07T02:15:15;30.65;;;16.95;;
67749;SDS011;54550;48.838;8.828;2022-12-07T02:20:34;26.52;;;15.10;;
67749;SDS011;54550;48.838;8.828;2022-12-07T02:26:29;25.98;;;14.48;;
67749;SDS011;54550;48.838;8.828;2022-12-07T02:31:55;28.13;;;16.05;;
67749;SDS011;54550;48.838;8.828;2022-12-07T02:37:08;28.10;;;15.95;;
67749;SDS011;54550;48.838;8.828;2022-12-07T02:39:47;25.17;;;14.82;;
67749;SDS011;54550;48.838;8.828;2022-12-07T02:42:26;21.90;;;14.30;;
67749;SDS011;54550;48.838;8.828;2022-12-07T02:44:58;23.73;;;15.00;;
67749;SDS011;54550;48.838;8.828;2022-12-07T02:47:25;26.05;;;14.50;;
67749;SDS011;54550;48.838;8.828;2022-12-07T02:49:53;27.25;;;15.75;;
67749;SDS011;54550;48.838;8.828;2022-12-07T02:52:19;25.70;;;15.00;;
67749;SDS011;54550;48.838;8.828;2022-12-07T02:54:44;25.73;;;14.80;;
67749;SDS011;54550;48.838;8.828;2022-12-07T02:57:16;24.03;;;14.07;;
67749;SDS011;54550;48.838;8.828;2022-12-07T03:00:08;19.98;;;11.73;;
67749;SDS011;54550;48.838;8.828;2022-12-07T03:05:49;23.90;;;12.55;;
67749;SDS011;54550;48.838;8.828;2022-12-07T03:11:42;21.48;;;12.70;;
67749;SDS011;54550;48.838;8.828;2022-12-07T03:17:16;25.50;;;13.88;;
67749;SDS011;54550;48.838;8.828;2022-12-07T03:19:42;20.70;;;13.73;;
67749;SDS011;54550;48.838;8.828;2022-12-07T03:22:11;29.60;;;14.15;;
67749;SDS011;54550;48.838;8.828;2022-12-07T03:24:40;22.92;;;13.82;;
67749;SDS011;54550;48.838;8.828;2022-12-07T03:27:13;22.25;;;12.65;;
67749;SDS011;54550;48.838;8.828;2022-12-07T03:29:46;30.30;;;13.43;;
67749;SDS011;54550;48.838;8.828;2022-12-07T03:34:56;21.52;;;13.70;;
67749;SDS011;54550;48.838;8.828;2022-12-07T03:38:34;20.27;;;11.18;;
67749;SDS011;54550;48.838;8.828;2022-12-07T03:40:55;25.95;;;10.98;;
67749;SDS011;54550;48.838;8.828;2022-12-07T03:43:44;20.58;;;12.75;;
67749;SDS011;54550;48.838;8.828;2022-12-07T03:46:17;21.00;;;12.40;;
67749;SDS011;54550;48.838;8.828;2022-12-07T03:49:00;21.77;;;11.30;;
67749;SDS011;54550;48.838;8.828;2022-12-07T03:51:45;24.70;;;12.77;;
67749;SDS011;54550;48.838;8.828;2022-12-07T03:54:19;24.13;;;13.40;;
67749;SDS011;54550;48.838;8.828;2022-12-07T03:56:53;26.02;;;13.25;;
67749;SDS011;54550;48.838;8.828;2022-12-07T03:59:20;22.73;;;12.77;;
67749;SDS011;54550;48.838;8.828;2022-12-07T04:01:54;23.75;;;13.88;;
67749;SDS011;54550;48.838;8.828;2022-12-07T04:04:22;29.48;;;14.30;;
67749;SDS011;54550;48.838;8.828;2022-12-07T04:06:49;23.95;;;13.40;;
67749;SDS011;54550;48.838;8.828;2022-12-07T04:09:15;24.30;;;12.95;;
67749;SDS011;54550;48.838;8.828;2022-12-07T04:11:41;24.83;;;14.07;;
67749;SDS011;54550;48.838;8.828;2022-12-07T04:14:07;38.17;;;11.67;;
67749;SDS011;54550;48.838;8.828;2022-12-07T04:16:48;18.23;;;10.23;;
67749;SDS011;54550;48.838;8.828;2022-12-07T04:19:19;18.35;;;9.68;;
67749;SDS011;54550;48.838;8.828;2022-12-07T04:21:46;14.75;;;8.00;;
67749;SDS011;54550;48.838;8.828;2022-12-07T04:24:13;14.97;;;7.13;;
67749;SDS011;54550;48.838;8.828;2022-12-07T04:26:40;10.20;;;7.28;;
67749;SDS011;54550;48.838;8.828;2022-12-07T04:29:06;9.35;;;6.57;;
67749;SDS011;54550;48.838;8.828;2022-12-07T04:31:32;13.27;;;7.22;;
67749;SDS011;54550;48.838;8.828;2022-12-07T04:33:58;10.17;;;6.60;;
67749;SDS011;54550;48.838;8.828;2022-12-07T04:36:24;12.03;;;6.37;;
67749;SDS011;54550;48.838;8.828;2022-12-07T04:38:49;11.10;;;7.87;;
67749;SDS011;54550;48.838;8.828;2022-12-07T04:41:17;10.43;;;7.90;;
67749;SDS011;54550;48.838;8.828;2022-12-07T04:43:43;10.70;;;6.30;;
67749;SDS011;54550;48.838;8.828;2022-12-07T04:46:08;10.90;;;6.77;;
67749;SDS011;54550;48.838;8.828;2022-12-07T04:48:34;9.40;;;7.00;;
67749;SDS011;54550;48.838;8.828;2022-12-07T04:50:59;10.90;;;6.20;;
67749;SDS011;54550;48.838;8.828;2022-12-07T04:53:25;14.50;;;8.90;;
67749;SDS011;54550;48.838;8.828;2022-12-07T04:55:50;18.23;;;8.97;;
67749;SDS011;54550;48.838;8.828;2022-12-07T04:58:16;19.93;;;9.57;;
67749;SDS011;54550;48.838;8.828;2022-12-07T05:00:42;16.97;;;9.37;;
67749;SDS011;54550;48.838;8.828;2022-12-07T05:03:07;16.50;;;9.73;;
67749;SDS011;54550;48.838;8.828;2022-12-07T05:05:33;15.23;;;8.87;;
67749;SDS011;54550;48.838;8.828;2022-12-07T05:07:58;14.80;;;7.80;;
67749;SDS011;54550;48.838;8.828;2022-12-07T05:10:24;13.80;;;8.00;;
67749;SDS011;54550;48.838;8.828;2022-12-07T05:12:49;17.40;;;9.50;;
67749;SDS011;54550;48.838;8.828;2022-12-07T05:15:15;12.63;;;8.10;;
67749;SDS011;54550;48.838;8.828;2022-12-07T05:17:41;12.53;;;8.20;;
67749;SDS011;54550;48.838;8.828;2022-12-07T05:20:07;15.30;;;8.80;;
67749;SDS011;54550;48.838;8.828;2022-12-07T05:22:33;11.95;;;8.23;;
67749;SDS011;54550;48.838;8.828;2022-12-07T05:24:59;16.37;;;9.57;;
67749;SDS011;54550;48.838;8.828;2022-12-07T05:27:24;19.23;;;8.87;;
67749;SDS011;54550;48.838;8.828;2022-12-07T05:29:50;15.30;;;7.53;;
67749;SDS011;54550;48.838;8.828;2022-12-07T05:32:16;15.70;;;8.48;;
67749;SDS011;54550;48.838;8.828;2022-12-07T05:34:42;13.27;;;7.50;;
67749;SDS011;54550;48.838;8.828;2022-12-07T05:37:08;9.80;;;6.60;;
67749;SDS011;54550;48.838;8.828;2022-12-07T05:39:33;13.57;;;8.73;;
67749;SDS011;54550;48.838;8.828;2022-12-07T05:41:59;14.50;;;8.60;;
67749;SDS011;54550;48.838;8.828;2022-12-07T05:47:06;16.90;;;9.85;;
67749;SDS011;54550;48.838;8.828;2022-12-07T05:49:32;25.13;;;11.20;;
67749;SDS011;54550;48.838;8.828;2022-12-07T05:51:57;12.07;;;8.88;;
67749;SDS011;54550;48.838;8.828;2022-12-07T05:54:23;40.00;;;15.20;;
67749;SDS011;54550;48.838;8.828;2022-12-07T05:56:49;18.03;;;12.43;;
67749;SDS011;54550;48.838;8.828;2022-12-07T05:59:14;19.27;;;11.63;;
67749;SDS011;54550;48.838;8.828;2022-12-07T06:01:53;12.82;;;8.38;;
67749;SDS011;54550;48.838;8.828;2022-12-07T06:04:22;14.63;;;8.82;;
67749;SDS011;54550;48.838;8.828;2022-12-07T06:06:48;14.18;;;7.55;;
67749;SDS011;54550;48.838;8.828;2022-12-07T06:09:14;16.07;;;8.87;;
67749;SDS011;54550;48.838;8.828;2022-12-07T06:11:40;15.60;;;8.10;;
67749;SDS011;54550;48.838;8.828;2022-12-07T06:14:25;9.80;;;6.97;;
67749;SDS011;54550;48.838;8.828;2022-12-07T06:16:50;7.70;;;5.50;;
67749;SDS011;54550;48.838;8.828;2022-12-07T06:19:16;20.10;;;10.90;;
67749;SDS011;54550;48.838;8.828;2022-12-07T06:21:42;16.83;;;13.65;;
67749;SDS011;54550;48.838;8.828;2022-12-07T06:24:09;18.17;;;10.37;;
67749;SDS011;54550;48.838;8.828;2022-12-07T06:26:39;7.65;;;5.55;;
67749;SDS011;54550;48.838;8.828;2022-12-07T06:29:05;7.20;;;4.70;;
67749;SDS011;54550;48.838;8.828;2022-12-07T06:31:30;6.73;;;5.00;;
67749;SDS011;54550;48.838;8.828;2022-12-07T06:33:57;7.47;;;4.90;;
67749;SDS011;54550;48.838;8.828;2022-12-07T06:36:28;9.90;;;8.40;;
67749;SDS011;54550;48.838;8.828;2022-12-07T06:38:53;14.23;;;11.93;;
67749;SDS011;54550;48.838;8.828;2022-12-07T06:41:20;22.23;;;17.92;;
67749;SDS011;54550;48.838;8.828;2022-12-07T06:43:46;21.50;;;17.92;;
67749;SDS011;54550;48.838;8.828;2022-12-07T06:46:12;15.33;;;13.10;;
67749;SDS011;54550;48.838;8.828;2022-12-07T06:48:39;7.85;;;5.88;;
67749;SDS011;54550;48.838;8.828;2022-12-07T06:51:05;16.73;;;7.82;;
67749;SDS011;54550;48.838;8.828;2022-12-07T06:53:30;7.13;;;4.90;;
67749;SDS011;54550;48.838;8.828;2022-12-07T06:55:56;8.37;;;5.17;;
67749;SDS011;54550;48.838;8.828;2022-12-07T06:58:21;7.43;;;5.00;;
67749;SDS011;54550;48.838;8.828;2022-12-07T07:00:47;7.73;;;5.00;;
67749;SDS011;54550;48.838;8.828;2022-12-07T07:03:14;6.18;;;4.53;;
67749;SDS011;54550;48.838;8.828;2022-12-07T07:05:41;4.83;;;4.07;;
67749;SDS011;54550;48.838;8.828;2022-12-07T07:08:07;4.65;;;3.78;;
67749;SDS011;54550;48.838;8.828;2022-12-07T07:10:33;8.90;;;4.32;;
67749;SDS011;54550;48.838;8.828;2022-12-07T07:12:59;6.63;;;4.40;;
67749;SDS011;54550;48.838;8.828;2022-12-07T07:15:24;8.17;;;5.10;;
67749;SDS011;54550;48.838;8.828;2022-12-07T07:17:50;9.60;;;5.20;;
67749;SDS011;54550;48.838;8.828;2022-12-07T07:20:15;9.27;;;5.90;;
67749;SDS011;54550;48.838;8.828;2022-12-07T07:22:41;8.00;;;5.00;;
67749;SDS011;54550;48.838;8.828;2022-12-07T07:25:07;7.87;;;5.30;;
67749;SDS011;54550;48.838;8.828;2022-12-07T07:27:32;7.03;;;5.10;;
67749;SDS011;54550;48.838;8.828;2022-12-07T07:29:58;7.73;;;5.83;;
67749;SDS011;54550;48.838;8.828;2022-12-07T07:32:23;9.73;;;5.60;;
67749;SDS011;54550;48.838;8.828;2022-12-07T07:34:49;7.27;;;4.70;;
67749;SDS011;54550;48.838;8.828;2022-12-07T07:37:14;10.53;;;4.67;;
67749;SDS011;54550;48.838;8.828;2022-12-07T07:39:40;7.73;;;5.10;;
67749;SDS011;54550;48.838;8.828;2022-12-07T07:42:06;8.30;;;4.33;;
67749;SDS011;54550;48.838;8.828;2022-12-07T07:44:32;6.03;;;4.30;;
67749;SDS011;54550;48.838;8.828;2022-12-07T07:46:58;6.80;;;4.32;;
67749;SDS011;54550;48.838;8.828;2022-12-07T07:49:24;9.90;;;6.43;;
67749;SDS011;54550;48.838;8.828;2022-12-07T07:51:50;7.72;;;5.43;;
67749;SDS011;54550;48.838;8.828;2022-12-07T07:54:16;9.80;;;6.03;;
67749;SDS011;54550;48.838;8.828;2022-12-07T07:56:41;7.07;;;5.30;;
67749;SDS011;54550;48.838;8.828;2022-12-07T07:59:07;13.27;;;6.90;;
67749;SDS011;54550;48.838;8.828;2022-12-07T08:01:33;10.50;;;5.53;;
67749;SDS011;54550;48.838;8.828;2022-12-07T08:03:58;6.80;;;4.40;;
67749;SDS011;54550;48.838;8.828;2022-12-07T08:06:24;6.47;;;4.53;;
67749;SDS011;54550;48.838;8.828;2022-12-07T08:08:49;13.23;;;6.40;;
67749;SDS011;54550;48.838;8.828;2022-12-07T08:11:15;7.17;;;5.50;;
67749;SDS011;54550;48.838;8.828;2022-12-07T08:13:41;7.17;;;4.60;;
67749;SDS011;54550;48.838;8.828;2022-12-07T08:16:07;8.40;;;5.03;;
67749;SDS011;54550;48.838;8.828;2022-12-07T08:18:37;11.18;;;4.93;;
67749;SDS011;54550;48.838;8.828;2022-12-07T08:21:05;8.93;;;4.03;;
67749;SDS011;54550;48.838;8.828;2022-12-07T08:23:32;9.38;;;4.90;;
67749;SDS011;54550;48.838;8.828;2022-12-07T08:26:02;6.45;;;5.07;;
67749;SDS011;54550;48.838;8.828;2022-12-07T08:28:29;6.07;;;5.00;;
67749;SDS011;54550;48.838;8.828;2022-12-07T08:31:09;7.17;;;5.20;;
67749;SDS011;54550;48.838;8.828;2022-12-07T08:33:37;7.82;;;4.70;;
67749;SDS011;54550;48.838;8.828;2022-12-07T08:36:04;7.22;;;4.55;;
67749;SDS011;54550;48.838;8.828;2022-12-07T08:38:31;6.25;;;4.30;;
67749;SDS011;54550;48.838;8.828;2022-12-07T08:40:57;11.40;;;4.83;;
67749;SDS011;54550;48.838;8.828;2022-12-07T08:43:23;6.47;;;4.15;;
67749;SDS011;54550;48.838;8.828;2022-12-07T08:46:04;5.78;;;4.13;;
67749;SDS011;54550;48.838;8.828;2022-12-07T08:48:50;7.85;;;4.35;;
67749;SDS011;54550;48.838;8.828;2022-12-07T08:51:20;6.30;;;4.25;;
67749;SDS011;54550;48.838;8.828;2022-12-07T08:53:48;13.82;;;4.90;;
67749;SDS011;54550;48.838;8.828;2022-12-07T08:56:16;6.57;;;5.47;;
67749;SDS011;54550;48.838;8.828;2022-12-07T08:58:41;9.40;;;5.37;;
67749;SDS011;54550;48.838;8.828;2022-12-07T09:01:08;5.40;;;4.50;;
67749;SDS011;54550;48.838;8.828;2022-12-07T09:03:34;4.72;;;3.50;;
67749;SDS011;54550;48.838;8.828;2022-12-07T09:06:00;2.93;;;2.73;;
67749;SDS011;54550;48.838;8.828;2022-12-07T09:08:46;5.57;;;4.20;;
67749;SDS011;54550;48.838;8.828;2022-12-07T09:11:15;2.85;;;2.40;;
67749;SDS011;54550;48.838;8.828;2022-12-07T09:13:40;3.93;;;2.53;;
67749;SDS011;54550;48.838;8.828;2022-12-07T09:16:06;4.63;;;3.17;;
67749;SDS011;54550;48.838;8.828;2022-12-07T09:18:31;3.10;;;2.80;;
67749;SDS011;54550;48.838;8.828;2022-12-07T09:20:57;4.03;;;2.97;;
67749;SDS011;54550;48.838;8.828;2022-12-07T09:23:23;3.33;;;3.03;;
67749;SDS011;54550;48.838;8.828;2022-12-07T09:25:48;3.67;;;2.53;;
67749;SDS011;54550;48.838;8.828;2022-12-07T09:28:14;4.27;;;3.10;;
67749;SDS011;54550;48.838;8.828;2022-12-07T09:30:45;2.97;;;2.60;;
67749;SDS011;54550;48.838;8.828;2022-12-07T09:33:12;3.17;;;2.60;;
67749;SDS011;54550;48.838;8.828;2022-12-07T09:35:37;3.20;;;2.80;;
67749;SDS011;54550;48.838;8.828;2022-12-07T09:38:03;2.67;;;2.47;;
67749;SDS011;54550;48.838;8.828;2022-12-07T09:40:28;4.33;;;3.00;;
67749;SDS011;54550;48.838;8.828;2022-12-07T09:42:54;4.17;;;2.53;;
67749;SDS011;54550;48.838;8.828;2022-12-07T09:45:22;5.65;;;3.15;;
67749;SDS011;54550;48.838;8.828;2022-12-07T09:47:58;2.50;;;2.30;;
67749;SDS011;54550;48.838;8.828;2022-12-07T09:50:25;2.93;;;2.57;;
67749;SDS011;54550;48.838;8.828;2022-12-07T09:52:52;2.40;;;2.20;;
67749;SDS011;54550;48.838;8.828;2022-12-07T09:55:24;3.22;;;2.22;;
67749;SDS011;54550;48.838;8.828;2022-12-07T09:57:53;2.63;;;2.30;;
67749;SDS011;54550;48.838;8.828;2022-12-07T10:00:20;3.50;;;2.47;;
67749;SDS011;54550;48.838;8.828;2022-12-07T10:02:57;1.92;;;1.27;;
67749;SDS011;54550;48.838;8.828;2022-12-07T10:05:28;3.80;;;2.10;;
67749;SDS011;54550;48.838;8.828;2022-12-07T10:07:57;7.93;;;4.28;;
67749;SDS011;54550;48.838;8.828;2022-12-07T10:10:28;6.33;;;4.00;;
67749;SDS011;54550;48.838;8.828;2022-12-07T10:13:00;9.98;;;4.55;;
67749;SDS011;54550;48.838;8.828;2022-12-07T10:18:25;2.80;;;2.50;;
67749;SDS011;54550;48.838;8.828;2022-12-07T10:21:16;1.40;;;1.30;;
67749;SDS011;54550;48.838;8.828;2022-12-07T10:23:43;4.20;;;1.60;;
67749;SDS011;54550;48.838;8.828;2022-12-07T10:26:38;2.17;;;1.55;;
67749;SDS011;54550;48.838;8.828;2022-12-07T10:29:20;2.35;;;1.20;;
67749;SDS011;54550;48.838;8.828;2022-12-07T10:31:58;3.88;;;1.90;;
67749;SDS011;54550;48.838;8.828;2022-12-07T10:34:30;4.07;;;2.53;;
67749;SDS011;54550;48.838;8.828;2022-12-07T10:39:41;2.90;;;2.65;;
67749;SDS011;54550;48.838;8.828;2022-12-07T10:44:46;3.60;;;2.80;;
67749;SDS011;54550;48.838;8.828;2022-12-07T10:47:25;3.72;;;2.42;;
67749;SDS011;54550;48.838;8.828;2022-12-07T10:50:02;3.15;;;2.85;;
67749;SDS011;54550;48.838;8.828;2022-12-07T10:53:05;5.20;;;3.88;;
67749;SDS011;54550;48.838;8.828;2022-12-07T10:55:53;6.35;;;4.00;;
67749;SDS011;54550;48.838;8.828;2022-12-07T11:01:09;8.98;;;4.97;;
67749;SDS011;54550;48.838;8.828;2022-12-07T11:04:07;6.18;;;4.40;;
67749;SDS011;54550;48.838;8.828;2022-12-07T11:15:36;7.10;;;3.55;;
67749;SDS011;54550;48.838;8.828;2022-12-07T11:21:19;8.80;;;5.32;;
67749;SDS011;54550;48.838;8.828;2022-12-07T11:35:11;6.93;;;4.82;;
67749;SDS011;54550;48.838;8.828;2022-12-07T11:37:40;7.30;;;5.22;;
67749;SDS011;54550;48.838;8.828;2022-12-07T11:40:14;8.63;;;5.80;;
67749;SDS011;54550;48.838;8.828;2022-12-07T11:42:45;10.25;;;6.05;;
67749;SDS011;54550;48.838;8.828;2022-12-07T11:45:25;7.88;;;5.22;;
67749;SDS011;54550;48.838;8.828;2022-12-07T11:47:54;11.93;;;6.13;;
67749;SDS011;54550;48.838;8.828;2022-12-07T11:52:58;8.73;;;6.15;;
67749;SDS011;54550;48.838;8.828;2022-12-07T11:55:47;10.05;;;6.28;;
67749;SDS011;54550;48.838;8.828;2022-12-07T11:58:24;12.60;;;7.05;;
67749;SDS011;54550;48.838;8.828;2022-12-07T12:03:38;17.55;;;7.78;;
67749;SDS011;54550;48.838;8.828;2022-12-07T12:06:11;14.20;;;8.52;;
67749;SDS011;54550;48.838;8.828;2022-12-07T12:08:44;9.33;;;6.80;;
67749;SDS011;54550;48.838;8.828;2022-12-07T12:14:15;10.93;;;6.93;;
67749;SDS011;54550;48.838;8.828;2022-12-07T12:19:42;10.15;;;7.43;;
67749;SDS011;54550;48.838;8.828;2022-12-07T12:22:17;9.45;;;6.20;;
67749;SDS011;54550;48.838;8.828;2022-12-07T12:24:47;14.18;;;6.78;;
67749;SDS011;54550;48.838;8.828;2022-12-07T12:27:26;13.15;;;7.43;;
67749;SDS011;54550;48.838;8.828;2022-12-07T12:29:56;8.60;;;6.45;;
67749;SDS011;54550;48.838;8.828;2022-12-07T12:42:58;10.32;;;8.10;;
67749;SDS011;54550;48.838;8.828;2022-12-07T12:45:24;10.82;;;7.40;;
67749;SDS011;54550;48.838;8.828;2022-12-07T12:48:01;11.13;;;7.00;;
67749;SDS011;54550;48.838;8.828;2022-12-07T12:50:49;18.40;;;8.43;;
67749;SDS011;54550;48.838;8.828;2022-12-07T12:54:02;11.90;;;6.57;;
67749;SDS011;54550;48.838;8.828;2022-12-07T12:56:38;10.02;;;6.63;;
67749;SDS011;54550;48.838;8.828;2022-12-07T12:59:18;11.68;;;6.72;;
67749;SDS011;54550;48.838;8.828;2022-12-07T13:01:48;10.90;;;7.20;;
67749;SDS011;54550;48.838;8.828;2022-12-07T13:12:57;7.85;;;4.90;;
67749;SDS011;54550;48.838;8.828;2022-12-07T13:29:06;12.43;;;7.85;;
67749;SDS011;54550;48.838;8.828;2022-12-07T13:36:58;9.43;;;5.28;;
67749;SDS011;54550;48.838;8.828;2022-12-07T13:39:27;8.43;;;6.05;;
67749;SDS011;54550;48.838;8.828;2022-12-07T13:41:53;12.27;;;6.80;;
67749;SDS011;54550;48.838;8.828;2022-12-07T13:44:24;10.20;;;8.05;;
67749;SDS011;54550;48.838;8.828;2022-12-07T13:49:27;8.48;;;5.15;;
67749;SDS011;54550;48.838;8.828;2022-12-07T13:55:05;6.88;;;4.40;;
67749;SDS011;54550;48.838;8.828;2022-12-07T13:57:39;11.75;;;4.57;;
67749;SDS011;54550;48.838;8.828;2022-12-07T14:00:13;4.65;;;4.00;;
67749;SDS011;54550;48.838;8.828;2022-12-07T14:02:56;7.43;;;4.72;;
67749;SDS011;54550;48.838;8.828;2022-12-07T14:05:26;10.25;;;6.18;;
67749;SDS011;54550;48.838;8.828;2022-12-07T14:07:57;9.02;;;5.85;;
67749;SDS011;54550;48.838;8.828;2022-12-07T14:12:58;4.50;;;4.10;;
67749;SDS011;54550;48.838;8.828;2022-12-07T14:15:34;5.20;;;4.53;;
67749;SDS011;54550;48.838;8.828;2022-12-07T14:18:01;7.35;;;5.35;;
67749;SDS011;54550;48.838;8.828;2022-12-07T14:23:03;8.02;;;5.65;;
67749;SDS011;54550;48.838;8.828;2022-12-07T14:25:44;8.65;;;6.03;;
67749;SDS011;54550;48.838;8.828;2022-12-07T14:28:33;13.82;;;7.03;;
67749;SDS011;54550;48.838;8.828;2022-12-07T14:31:00;12.98;;;7.60;;
67749;SDS011;54550;48.838;8.828;2022-12-07T14:33:27;17.13;;;9.02;;
67749;SDS011;54550;48.838;8.828;2022-12-07T14:35:53;18.45;;;10.57;;
67749;SDS011;54550;48.838;8.828;2022-12-07T14:38:23;34.78;;;10.65;;
67749;SDS011;54550;48.838;8.828;2022-12-07T14:40:49;16.52;;;10.20;;
67749;SDS011;54550;48.838;8.828;2022-12-07T14:43:16;20.25;;;10.27;;
67749;SDS011;54550;48.838;8.828;2022-12-07T14:45:43;13.30;;;8.13;;
67749;SDS011;54550;48.838;8.828;2022-12-07T14:48:13;11.40;;;7.75;;
67749;SDS011;54550;48.838;8.828;2022-12-07T14:50:40;11.60;;;7.80;;
67749;SDS011;54550;48.838;8.828;2022-12-07T14:53:10;16.38;;;8.60;;
67749;SDS011;54550;48.838;8.828;2022-12-07T14:55:39;18.33;;;11.40;;
67749;SDS011;54550;48.838;8.828;2022-12-07T14:58:04;24.37;;;10.33;;
67749;SDS011;54550;48.838;8.828;2022-12-07T15:00:30;20.73;;;10.13;;
67749;SDS011;54550;48.838;8.828;2022-12-07T15:02:56;13.10;;;8.30;;
67749;SDS011;54550;48.838;8.828;2022-12-07T15:05:22;15.03;;;9.40;;
67749;SDS011;54550;48.838;8.828;2022-12-07T15:07:48;17.30;;;10.10;;
67749;SDS011;54550;48.838;8.828;2022-12-07T15:10:15;21.10;;;10.48;;
67749;SDS011;54550;48.838;8.828;2022-12-07T15:12:44;11.95;;;7.75;;
67749;SDS011;54550;48.838;8.828;2022-12-07T15:15:10;15.80;;;8.20;;
67749;SDS011;54550;48.838;8.828;2022-12-07T15:17:35;12.90;;;8.97;;
67749;SDS011;54550;48.838;8.828;2022-12-07T15:20:01;15.67;;;9.53;;
67749;SDS011;54550;48.838;8.828;2022-12-07T15:22:28;21.08;;;10.10;;
67749;SDS011;54550;48.838;8.828;2022-12-07T15:24:56;16.50;;;9.70;;
67749;SDS011;54550;48.838;8.828;2022-12-07T15:27:22;23.98;;;12.07;;
67749;SDS011;54550;48.838;8.828;2022-12-07T15:29:47;19.40;;;11.10;;
67749;SDS011;54550;48.838;8.828;2022-12-07T15:32:13;23.83;;;11.13;;
67749;SDS011;54550;48.838;8.828;2022-12-07T15:34:38;19.33;;;12.20;;
67749;SDS011;54550;48.838;8.828;2022-12-07T15:37:04;21.33;;;10.77;;
67749;SDS011;54550;48.838;8.828;2022-12-07T15:39:30;20.57;;;11.27;;
67749;SDS011;54550;48.838;8.828;2022-12-07T15:41:55;20.43;;;11.23;;
67749;SDS011;54550;48.838;8.828;2022-12-07T15:44:21;42.30;;;18.60;;
67749;SDS011;54550;48.838;8.828;2022-12-07T15:47:05;21.80;;;11.70;;
67749;SDS011;54550;48.838;8.828;2022-12-07T15:49:31;24.30;;;13.43;;
67749;SDS011;54550;48.838;8.828;2022-12-07T15:51:57;16.50;;;11.33;;
67749;SDS011;54550;48.838;8.828;2022-12-07T15:54:23;19.70;;;11.53;;
67749;SDS011;54550;48.838;8.828;2022-12-07T15:56:50;27.15;;;12.75;;
67749;SDS011;54550;48.838;8.828;2022-12-07T15:59:16;28.63;;;13.93;;
67749;SDS011;54550;48.838;8.828;2022-12-07T16:01:42;26.42;;;12.70;;
67749;SDS011;54550;48.838;8.828;2022-12-07T16:04:08;24.17;;;15.10;;
67749;SDS011;54550;48.838;8.828;2022-12-07T16:06:34;32.60;;;14.77;;
67749;SDS011;54550;48.838;8.828;2022-12-07T16:09:00;32.47;;;16.00;;
67749;SDS011;54550;48.838;8.828;2022-12-07T16:11:25;26.20;;;16.43;;
67749;SDS011;54550;48.838;8.828;2022-12-07T16:13:51;33.23;;;17.63;;
67749;SDS011;54550;48.838;8.828;2022-12-07T16:16:18;38.73;;;19.37;;
67749;SDS011;54550;48.838;8.828;2022-12-07T16:18:45;30.40;;;16.50;;
67749;SDS011;54550;48.838;8.828;2022-12-07T16:21:11;35.40;;;17.63;;
67749;SDS011;54550;48.838;8.828;2022-12-07T16:23:39;30.00;;;17.60;;
67749;SDS011;54550;48.838;8.828;2022-12-07T16:26:05;33.25;;;18.38;;
67749;SDS011;54550;48.838;8.828;2022-12-07T16:28:32;22.98;;;13.80;;
67749;SDS011;54550;48.838;8.828;2022-12-07T16:31:04;20.13;;;13.13;;
67749;SDS011;54550;48.838;8.828;2022-12-07T16:33:32;28.10;;;14.85;;
67749;SDS011;54550;48.838;8.828;2022-12-07T16:36:02;29.63;;;15.45;;
67749;SDS011;54550;48.838;8.828;2022-12-07T16:38:28;18.38;;;11.30;;
67749;SDS011;54550;48.838;8.828;2022-12-07T16:40:54;18.03;;;11.73;;
67749;SDS011;54550;48.838;8.828;2022-12-07T16:43:20;24.37;;;15.23;;
67749;SDS011;54550;48.838;8.828;2022-12-07T16:45:46;21.70;;;13.97;;
67749;SDS011;54550;48.838;8.828;2022-12-07T16:48:12;24.05;;;13.60;;
67749;SDS011;54550;48.838;8.828;2022-12-07T16:50:39;26.63;;;16.02;;